Time;durP1;ratioP1;P1;durP2;ratioP2;P2;SDS_P1;SDS_P2;PMS_P1;PMS_P2;Temp;Humidity;BMP_temperature;BMP_pressure;BME280_temperature;BME280_humidity;BME280_pressure;Samples;Min_cycle;Max_cycle;Signal;HPM_P1;HPM_P2
2021/06/15 00:02:19;;;;;;;6.17;4.40;;;26.10;51.10;;;;;;4937024;29;20405;-80
2021/06/15 00:04:48;;;;;;;4.63;4.23;;;26.00;51.10;;;;;;4937789;29;20499;-80
2021/06/15 00:07:18;;;;;;;3.97;3.67;;;26.00;51.10;;;;;;4921780;29;20419;-80
2021/06/15 00:09:45;;;;;;;4.03;3.63;;;26.00;51.10;;;;;;4905801;29;20515;-80
2021/06/15 00:12:11;;;;;;;4.53;4.13;;;26.00;51.10;;;;;;4921080;29;20430;-80
2021/06/15 00:14:37;;;;;;;3.97;3.67;;;26.00;51.10;;;;;;4919894;29;20496;-80
2021/06/15 00:17:05;;;;;;;3.63;3.30;;;26.00;51.10;;;;;;4921704;29;20428;-80
2021/06/15 00:19:31;;;;;;;4.43;3.53;;;26.00;51.10;;;;;;4937825;29;20416;-79
2021/06/15 00:22:01;;;;;;;4.33;3.93;;;26.00;51.10;;;;;;4938317;29;20412;-79
2021/06/15 00:24:33;;;;;;;4.90;4.50;;;26.00;51.10;;;;;;4922309;29;20408;-80
2021/06/15 00:26:59;;;;;;;4.53;4.13;;;26.00;51.10;;;;;;4923198;29;20396;-79
2021/06/15 00:29:28;;;;;;;4.40;3.97;;;26.00;51.10;;;;;;4922828;29;20426;-79
2021/06/15 00:31:53;;;;;;;5.70;4.30;;;26.00;51.10;;;;;;4933653;29;20447;-80
2021/06/15 00:34:19;;;;;;;4.07;3.73;;;26.00;51.10;;;;;;4933037;29;20424;-80
2021/06/15 00:36:45;;;;;;;4.90;3.57;;;26.00;51.10;;;;;;4935990;29;20500;-80
2021/06/15 00:39:11;;;;;;;4.50;4.07;;;26.00;51.10;;;;;;4919888;29;20179;-80
2021/06/15 00:41:37;;;;;;;5.50;3.37;;;25.90;51.00;;;;;;4936966;29;20172;-80
2021/06/15 00:44:10;;;;;;;4.50;4.10;;;26.00;51.10;;;;;;4936513;29;20184;-80
2021/06/15 00:46:38;;;;;;;3.73;3.20;;;25.90;51.00;;;;;;4920287;29;20422;-80
2021/06/15 00:49:07;;;;;;;4.57;4.10;;;25.90;51.00;;;;;;4936697;29;20411;-80
2021/06/15 00:51:35;;;;;;;5.10;4.00;;;25.90;51.00;;;;;;4924106;29;20431;-79
2021/06/15 00:54:02;;;;;;;5.13;4.40;;;25.90;50.90;;;;;;4924104;29;20838;-80
2021/06/15 00:56:30;;;;;;;6.50;3.87;;;25.90;50.90;;;;;;4923886;29;20418;-80
2021/06/15 00:58:56;;;;;;;4.30;3.90;;;25.90;51.00;;;;;;4922446;29;20450;-80
2021/06/15 01:01:23;;;;;;;4.03;3.50;;;25.90;51.00;;;;;;4925548;29;20431;-80
2021/06/15 01:03:50;;;;;;;4.40;3.87;;;25.90;50.90;;;;;;4927294;29;20271;-80
2021/06/15 01:06:41;;;;;;;3.90;3.57;;;25.90;50.90;;;;;;4925379;29;20502;-79
2021/06/15 01:09:33;;;;;;;4.17;3.77;;;25.90;50.90;;;;;;4925545;29;20408;-80
2021/06/15 01:12:34;;;;;;;3.80;3.47;;;25.90;50.90;;;;;;4923938;29;20497;-80
2021/06/15 01:15:11;;;;;;;3.33;3.10;;;25.90;51.00;;;;;;4940669;29;20427;-79
2021/06/15 01:18:02;;;;;;;3.87;3.57;;;25.90;51.00;;;;;;4924346;29;20439;-80
2021/06/15 01:20:37;;;;;;;4.90;4.40;;;25.90;51.00;;;;;;4940659;29;20408;-79
2021/06/15 01:23:19;;;;;;;3.87;3.57;;;25.90;51.10;;;;;;4924307;29;20470;-79
2021/06/15 01:26:10;;;;;;;3.30;3.00;;;25.90;51.00;;;;;;4922636;29;20452;-80
2021/06/15 01:29:04;;;;;;;3.23;3.00;;;25.90;51.00;;;;;;4922441;29;20416;-80
2021/06/15 01:31:54;;;;;;;4.00;3.60;;;25.90;51.00;;;;;;4922795;29;20751;-80
2021/06/15 01:34:34;;;;;;;3.70;3.27;;;25.90;51.00;;;;;;4938759;29;20400;-79
2021/06/15 01:37:10;;;;;;;3.17;2.97;;;25.90;51.10;;;;;;4939306;29;20763;-80
2021/06/15 01:39:49;;;;;;;4.03;3.60;;;25.90;51.00;;;;;;4922547;29;20408;-81
2021/06/15 01:42:32;;;;;;;3.47;3.17;;;25.90;51.10;;;;;;4938507;29;20400;-81
2021/06/15 01:45:10;;;;;;;4.27;3.87;;;25.90;51.00;;;;;;4922122;29;20462;-81
2021/06/15 01:47:43;;;;;;;3.60;3.13;;;25.90;51.00;;;;;;4906438;29;20446;-80
2021/06/15 01:50:11;;;;;;;4.07;3.33;;;25.90;51.00;;;;;;4922512;29;20546;-80
2021/06/15 01:52:43;;;;;;;3.50;3.20;;;25.90;51.00;;;;;;4921777;29;20420;-80
2021/06/15 01:55:10;;;;;;;3.27;2.97;;;25.80;51.00;;;;;;4921836;29;20471;-80
2021/06/15 01:57:37;;;;;;;3.33;3.03;;;25.90;51.00;;;;;;4922295;29;20430;-80
2021/06/15 02:00:12;;;;;;;3.73;3.43;;;25.90;51.00;;;;;;4921577;29;20471;-80
2021/06/15 02:02:56;;;;;;;3.70;3.40;;;25.90;50.90;;;;;;4921528;29;20479;-81
2021/06/15 02:05:35;;;;;;;4.40;4.00;;;25.90;51.00;;;;;;4923762;29;20455;-80
2021/06/15 02:08:03;;;;;;;3.83;3.30;;;25.80;50.90;;;;;;4941203;29;20383;-80
2021/06/15 02:10:31;;;;;;;3.90;3.60;;;25.80;50.90;;;;;;4921721;29;20419;-80
2021/06/15 02:12:57;;;;;;;4.33;3.30;;;25.90;50.90;;;;;;4938497;29;20448;-80
2021/06/15 02:15:29;;;;;;;5.40;3.90;;;25.80;50.90;;;;;;4922724;29;20814;-80
2021/06/15 02:17:57;;;;;;;4.13;3.73;;;25.90;50.90;;;;;;4922562;29;20172;-80
2021/06/15 02:20:31;;;;;;;3.77;3.37;;;25.80;50.90;;;;;;4922185;29;20467;-80
2021/06/15 02:23:01;;;;;;;4.70;4.30;;;25.80;50.90;;;;;;4939008;29;20472;-80
2021/06/15 02:25:34;;;;;;;4.23;3.87;;;25.80;50.90;;;;;;4922047;29;20447;-80
2021/06/15 02:28:00;;;;;;;4.43;3.57;;;25.80;50.80;;;;;;4905797;29;20416;-80
2021/06/15 02:30:26;;;;;;;3.77;3.47;;;25.80;50.90;;;;;;4938687;29;20419;-80
2021/06/15 02:33:05;;;;;;;3.50;3.20;;;25.80;50.80;;;;;;4922360;29;20175;-80
2021/06/15 02:35:31;;;;;;;3.83;3.53;;;25.80;50.80;;;;;;4922299;29;20408;-80
2021/06/15 02:38:11;;;;;;;4.27;3.87;;;25.80;51.30;;;;;;4922114;29;20436;-80
2021/06/15 02:40:41;;;;;;;3.70;3.40;;;25.80;50.80;;;;;;4938788;29;20408;-80
2021/06/15 02:43:10;;;;;;;4.30;4.00;;;25.80;50.70;;;;;;4921807;29;20416;-80
2021/06/15 02:45:38;;;;;;;4.73;4.33;;;25.80;50.80;;;;;;4938305;29;20459;-80
2021/06/15 02:48:07;;;;;;;4.50;4.00;;;25.80;50.70;;;;;;4922457;29;20403;-80
2021/06/15 02:50:35;;;;;;;4.17;3.80;;;25.80;50.70;;;;;;4921792;29;20420;-80
2021/06/15 02:53:06;;;;;;;4.03;3.63;;;25.80;50.70;;;;;;4921618;29;20852;-80
2021/06/15 02:55:51;;;;;;;4.50;3.73;;;25.80;50.70;;;;;;4921273;29;20424;-80
2021/06/15 02:58:19;;;;;;;4.23;3.83;;;25.70;50.70;;;;;;4920572;29;20400;-80
2021/06/15 03:00:46;;;;;;;4.17;3.60;;;25.70;50.60;;;;;;4938126;29;20463;-80
2021/06/15 03:03:12;;;;;;;4.80;4.30;;;25.70;50.60;;;;;;4921790;29;20424;-80
2021/06/15 03:05:38;;;;;;;4.10;3.80;;;25.80;50.60;;;;;;4921276;29;20455;-80
2021/06/15 03:08:04;;;;;;;4.20;3.80;;;25.80;50.60;;;;;;4921745;29;20448;-80
2021/06/15 03:10:31;;;;;;;4.90;4.37;;;25.80;50.60;;;;;;4938330;29;20420;-80
2021/06/15 03:13:16;;;;;;;4.30;4.00;;;25.80;50.60;;;;;;4921663;29;20444;-80
2021/06/15 03:15:46;;;;;;;4.53;4.03;;;25.80;50.60;;;;;;4921324;29;20400;-80
2021/06/15 03:18:20;;;;;;;4.03;3.73;;;25.70;50.50;;;;;;4937873;29;20412;-80
2021/06/15 03:20:49;;;;;;;3.97;3.67;;;25.70;50.50;;;;;;4938058;29;20422;-81
2021/06/15 03:24:08;;;;;;;4.03;3.63;;;25.70;50.50;;;;;;4938198;29;20404;-80
2021/06/15 03:26:52;;;;;;;4.10;3.80;;;25.80;50.60;;;;;;4927188;29;21005;-80
2021/06/15 03:29:24;;;;;;;6.83;3.90;;;25.70;50.50;;;;;;4937862;29;20489;-80
2021/06/15 03:31:54;;;;;;;4.50;4.07;;;25.70;50.50;;;;;;4921356;29;20441;-80
2021/06/15 03:34:25;;;;;;;3.37;3.17;;;25.70;50.60;;;;;;4920564;29;20435;-80
2021/06/15 03:36:54;;;;;;;3.83;3.53;;;25.70;50.60;;;;;;4921112;29;20411;-80
2021/06/15 03:39:23;;;;;;;3.83;3.47;;;25.70;50.60;;;;;;4920610;29;20424;-80
2021/06/15 03:41:54;;;;;;;3.87;3.50;;;25.70;50.60;;;;;;4905872;29;20419;-80
2021/06/15 03:44:23;;;;;;;4.13;3.77;;;25.70;50.50;;;;;;4920952;29;20420;-80
2021/06/15 03:46:54;;;;;;;4.00;3.70;;;25.70;50.50;;;;;;4937211;29;20435;-80
2021/06/15 03:49:24;;;;;;;3.50;3.20;;;25.70;50.50;;;;;;4920829;29;20423;-80
2021/06/15 03:52:01;;;;;;;3.60;3.30;;;25.70;50.60;;;;;;4937020;29;20435;-80
2021/06/15 03:54:28;;;;;;;3.87;3.47;;;25.80;50.70;;;;;;4936848;29;20422;-80
2021/06/15 03:56:56;;;;;;;4.63;3.80;;;25.80;50.60;;;;;;4937002;29;20407;-80
2021/06/15 03:59:26;;;;;;;4.47;3.60;;;25.80;50.50;;;;;;4921799;29;20420;-80
2021/06/15 04:01:55;;;;;;;3.93;3.60;;;25.80;50.40;;;;;;4936997;29;20396;-80
2021/06/15 04:04:22;;;;;;;3.83;3.50;;;25.80;50.30;;;;;;4920056;29;20451;-80
2021/06/15 04:06:50;;;;;;;4.10;3.67;;;25.80;50.20;;;;;;4937054;29;20396;-80
2021/06/15 04:09:25;;;;;;;3.60;3.30;;;25.80;50.30;;;;;;4921304;29;20567;-80
2021/06/15 04:11:54;;;;;;;4.30;3.20;;;25.80;50.20;;;;;;4941550;29;20400;-84
2021/06/15 04:14:22;;;;;;;3.50;3.20;;;25.80;50.40;;;;;;4924672;29;20471;-80
2021/06/15 04:16:49;;;;;;;3.97;3.60;;;25.80;50.30;;;;;;4925096;29;20423;-80
2021/06/15 04:19:20;;;;;;;3.90;3.60;;;25.80;50.40;;;;;;4925085;29;20586;-80
2021/06/15 04:21:47;;;;;;;4.17;3.57;;;25.80;50.30;;;;;;4908632;29;20482;-80
2021/06/15 04:24:39;;;;;;;4.10;3.80;;;25.90;50.20;;;;;;4923664;29;20424;-85
2021/06/15 04:27:06;;;;;;;6.00;3.43;;;25.90;50.20;;;;;;4910525;29;20439;-80
2021/06/15 04:29:32;;;;;;;3.90;3.60;;;25.90;50.20;;;;;;4923308;29;20444;-80
2021/06/15 04:32:08;;;;;;;3.77;3.47;;;25.90;50.20;;;;;;4923635;29;20424;-80
2021/06/15 04:34:41;;;;;;;3.50;3.20;;;26.00;50.20;;;;;;4923527;29;20435;-80
2021/06/15 04:37:12;;;;;;;3.53;3.23;;;25.90;50.10;;;;;;4923213;29;20446;-80
2021/06/15 04:39:47;;;;;;;3.50;3.20;;;26.00;50.20;;;;;;4923119;29;20439;-80
2021/06/15 04:42:24;;;;;;;4.97;3.03;;;26.00;50.20;;;;;;4923525;29;20410;-80
2021/06/15 04:44:52;;;;;;;3.10;2.83;;;26.00;50.20;;;;;;4923309;29;20459;-80
2021/06/15 04:47:34;;;;;;;3.10;2.80;;;26.00;50.20;;;;;;4922655;29;20416;-80
2021/06/15 04:50:06;;;;;;;3.70;3.40;;;26.10;50.20;;;;;;4939779;29;20383;-80
2021/06/15 04:52:36;;;;;;;3.40;3.20;;;26.00;50.20;;;;;;4922916;29;20411;-80
2021/06/15 04:55:05;;;;;;;3.43;3.13;;;26.10;50.30;;;;;;4939601;29;20480;-80
2021/06/15 04:57:43;;;;;;;3.57;3.27;;;26.10;50.30;;;;;;4924054;29;20419;-80
2021/06/15 05:00:10;;;;;;;2.97;2.77;;;26.10;50.20;;;;;;4923145;29;20439;-80
2021/06/15 05:02:39;;;;;;;3.20;2.80;;;26.10;50.20;;;;;;4923738;29;20431;-80
2021/06/15 05:05:10;;;;;;;3.03;2.83;;;26.10;50.20;;;;;;4923248;29;20475;-80
2021/06/15 05:07:44;;;;;;;2.97;2.67;;;26.10;50.20;;;;;;4897092;29;20434;-80
2021/06/15 05:10:14;;;;;;;3.50;2.93;;;26.10;50.20;;;;;;4920959;29;20424;-79
2021/06/15 05:12:44;;;;;;;4.97;3.37;;;26.10;50.20;;;;;;4922585;29;20435;-79
2021/06/15 05:15:12;;;;;;;2.70;2.50;;;26.10;50.20;;;;;;4916907;29;20436;-80
2021/06/15 05:17:45;;;;;;;3.33;3.03;;;26.10;50.20;;;;;;4902552;29;21018;-80
2021/06/15 05:20:11;;;;;;;3.70;3.40;;;26.20;50.30;;;;;;4902656;29;20429;-80
2021/06/15 05:22:46;;;;;;;6.00;3.40;;;26.20;50.30;;;;;;4901982;29;20428;-80
2021/06/15 05:25:15;;;;;;;2.83;2.63;;;26.20;50.30;;;;;;4917986;29;20464;-80
2021/06/15 05:27:44;;;;;;;3.10;2.90;;;26.20;50.30;;;;;;4918712;29;20417;-79
2021/06/15 05:30:11;;;;;;;3.20;2.90;;;26.20;50.30;;;;;;4918344;29;20416;-80
2021/06/15 05:32:37;;;;;;;3.47;3.17;;;26.10;50.20;;;;;;4918720;29;20421;-80
2021/06/15 05:35:03;;;;;;;3.40;3.10;;;26.20;50.30;;;;;;4903059;29;20440;-82
2021/06/15 05:37:29;;;;;;;4.03;3.10;;;26.20;50.30;;;;;;4902447;29;20473;-82
2021/06/15 05:40:00;;;;;;;3.23;2.93;;;26.20;50.30;;;;;;4933823;29;20878;-82
2021/06/15 05:42:26;;;;;;;3.80;3.50;;;26.20;50.30;;;;;;4901714;29;20416;-82
2021/06/15 05:44:52;;;;;;;3.27;2.97;;;26.20;50.30;;;;;;4916983;29;20487;-82
2021/06/15 05:47:18;;;;;;;3.20;3.00;;;26.20;50.30;;;;;;4902289;29;20421;-82
2021/06/15 05:49:45;;;;;;;4.40;3.40;;;26.20;50.30;;;;;;4901737;29;20431;-82
2021/06/15 05:52:12;;;;;;;5.03;3.47;;;26.20;50.30;;;;;;4901666;29;20464;-82
2021/06/15 05:54:42;;;;;;;3.10;2.80;;;26.20;50.40;;;;;;4902524;29;20413;-82
2021/06/15 05:57:09;;;;;;;4.03;3.63;;;26.30;50.40;;;;;;4901842;29;20458;-82
2021/06/15 05:59:36;;;;;;;2.97;2.60;;;26.30;50.40;;;;;;4918708;29;20429;-82
2021/06/15 06:02:03;;;;;;;3.67;3.30;;;26.30;50.50;;;;;;4901603;29;20427;-81
2021/06/15 06:04:48;;;;;;;2.80;2.60;;;26.40;50.50;;;;;;4900927;29;20887;-81
2021/06/15 06:10:28;;;;;;;5.00;3.50;;;26.30;50.50;;;;;;4917968;29;20515;-81
2021/06/15 06:12:55;;;;;;;3.90;3.50;;;26.30;50.50;;;;;;4902231;29;20433;-81
2021/06/15 06:15:21;;;;;;;3.40;2.87;;;26.30;50.50;;;;;;4901821;29;20496;-81
2021/06/15 06:17:49;;;;;;;3.43;3.13;;;26.30;50.50;;;;;;4917213;29;20431;-81
2021/06/15 06:20:18;;;;;;;3.83;3.43;;;26.30;50.50;;;;;;4901958;29;20466;-81
2021/06/15 06:22:45;;;;;;;3.43;3.13;;;26.40;50.60;;;;;;4901719;29;20428;-81
2021/06/15 06:25:13;;;;;;;3.43;3.07;;;26.40;50.60;;;;;;4902656;29;20464;-81
2021/06/15 06:27:49;;;;;;;4.13;3.00;;;26.30;50.50;;;;;;4902082;29;20432;-81
2021/06/15 06:30:16;;;;;;;3.30;3.00;;;26.40;51.20;;;;;;4933521;29;20436;-80
2021/06/15 06:32:44;;;;;;;3.70;3.40;;;26.30;50.50;;;;;;4902059;29;20424;-81
2021/06/15 06:35:13;;;;;;;3.30;3.00;;;26.40;50.60;;;;;;4917586;29;20412;-81
2021/06/15 06:37:39;;;;;;;3.93;3.20;;;26.40;50.60;;;;;;4901547;29;20445;-81
2021/06/15 06:40:06;;;;;;;4.47;3.40;;;26.40;50.60;;;;;;4901212;29;20432;-81
2021/06/15 06:42:32;;;;;;;3.97;3.37;;;26.40;50.60;;;;;;4900837;29;20437;-81
2021/06/15 06:45:01;;;;;;;5.43;3.27;;;26.40;50.60;;;;;;4917966;29;20464;-81
2021/06/15 06:47:27;;;;;;;4.70;3.67;;;26.40;50.60;;;;;;4900481;29;20431;-80
2021/06/15 06:50:15;;;;;;;3.40;3.10;;;26.40;50.60;;;;;;4919115;29;20442;-80
2021/06/15 06:52:43;;;;;;;3.67;3.30;;;26.40;50.60;;;;;;4935884;29;20464;-80
2021/06/15 06:55:09;;;;;;;4.40;3.40;;;26.30;50.60;;;;;;4920555;29;20515;-80
2021/06/15 07:01:12;;;;;;;4.73;3.43;;;26.40;50.60;;;;;;4936581;29;20430;-81
2021/06/15 07:03:44;;;;;;;3.90;3.50;;;26.40;50.70;;;;;;4920163;29;20479;-82
2021/06/15 07:06:17;;;;;;;4.03;3.33;;;26.40;50.70;;;;;;4920025;29;20476;-82
2021/06/15 07:08:48;;;;;;;3.93;3.53;;;26.40;50.70;;;;;;4920431;29;20507;-81
2021/06/15 07:11:17;;;;;;;3.80;3.47;;;26.40;50.70;;;;;;4935763;29;20873;-81
2021/06/15 07:13:48;;;;;;;3.70;3.20;;;26.40;50.70;;;;;;4935601;29;20400;-81
2021/06/15 07:16:14;;;;;;;3.30;2.97;;;26.40;50.70;;;;;;4918288;29;20542;-81
2021/06/15 07:18:43;;;;;;;3.40;3.10;;;26.40;50.70;;;;;;4918726;29;20456;-81
2021/06/15 07:21:09;;;;;;;4.40;4.00;;;26.40;50.70;;;;;;4934111;29;20439;-81
2021/06/15 07:23:41;;;;;;;4.10;3.70;;;26.40;50.70;;;;;;4934925;29;20427;-81
2021/06/15 07:26:08;;;;;;;3.50;3.20;;;26.40;50.70;;;;;;4902690;29;20463;-81
2021/06/15 07:28:50;;;;;;;3.97;3.20;;;26.40;50.70;;;;;;4918340;29;20431;-81
2021/06/15 07:31:17;;;;;;;4.07;3.50;;;26.40;50.70;;;;;;4918253;29;20455;-81
2021/06/15 07:33:50;;;;;;;4.63;3.77;;;26.40;50.70;;;;;;4936054;29;20420;-81
2021/06/15 07:39:38;;;;;;;4.27;3.30;;;26.50;50.70;;;;;;4936250;29;20411;-81
2021/06/15 07:42:07;;;;;;;5.37;3.13;;;26.50;50.70;;;;;;4918356;29;20922;-81
2021/06/15 07:44:49;;;;;;;6.13;3.60;;;26.40;50.70;;;;;;4918541;29;20432;-81
2021/06/15 07:47:30;;;;;;;4.40;3.80;;;26.50;50.70;;;;;;4935664;29;20412;-82
2021/06/15 08:00:25;;;;;;;3.47;3.17;;;26.50;50.80;;;;;;4882681;29;20407;-81
2021/06/15 08:09:44;;;;;;;5.67;3.70;;;26.40;50.80;;;;;;4865204;29;20403;-80
2021/06/15 08:21:58;;;;;;;4.33;3.90;;;26.40;50.80;;;;;;4847918;29;20418;-80
2021/06/15 08:24:35;;;;;;;4.10;3.70;;;26.40;50.80;;;;;;4857297;29;20423;-80
2021/06/15 08:27:11;;;;;;;3.40;3.10;;;26.40;50.90;;;;;;4841339;29;20431;-80
2021/06/15 08:29:41;;;;;;;4.50;4.10;;;26.50;50.80;;;;;;4879777;29;20461;-80
2021/06/15 08:32:22;;;;;;;3.17;2.87;;;26.40;50.80;;;;;;4878646;29;20425;-80
2021/06/15 08:34:56;;;;;;;3.70;3.40;;;26.50;50.80;;;;;;4880385;29;20441;-80
2021/06/15 08:37:23;;;;;;;5.73;3.20;;;26.40;50.70;;;;;;4896771;29;20406;-80
2021/06/15 08:39:56;;;;;;;4.50;3.47;;;26.50;50.80;;;;;;4895322;29;20448;-81
2021/06/15 08:42:43;;;;;;;4.03;3.60;;;26.50;50.80;;;;;;4896322;29;20432;-80
2021/06/15 08:45:22;;;;;;;3.63;3.33;;;26.50;50.80;;;;;;4918824;29;20443;-80
2021/06/15 08:48:13;;;;;;;3.73;3.20;;;26.50;50.80;;;;;;4920343;29;20450;-80
2021/06/15 08:50:44;;;;;;;3.43;3.13;;;26.50;50.70;;;;;;4928164;29;20420;-80
2021/06/15 08:53:24;;;;;;;3.77;3.47;;;26.50;50.80;;;;;;4917121;29;20416;-80
2021/06/15 08:56:09;;;;;;;;;;;;;;;;;;;;;
2021/06/15 08:59:02;;;;;;;4.00;3.60;;;26.50;50.80;;;;;;4939209;29;20415;-80
2021/06/15 09:01:46;;;;;;;;;;;;;;;;;;;;;
2021/06/15 09:04:28;;;;;;;4.20;3.80;;;26.50;50.80;;;;;;4924050;29;20411;-80
2021/06/15 09:07:10;;;;;;;4.17;3.57;;;26.50;50.80;;;;;;4921317;29;20432;-80
2021/06/15 09:12:55;;;;;;;3.80;3.40;;;26.50;50.80;;;;;;4937051;29;20447;-81
2021/06/15 09:15:57;;;;;;;5.83;3.40;;;26.50;50.80;;;;;;4919971;29;20431;-81
2021/06/15 09:25:28;;;;;;;3.97;3.60;;;26.60;50.80;;;;;;4939695;29;20567;-81
2021/06/15 09:28:01;;;;;;;5.93;4.00;;;26.50;50.80;;;;;;4921321;29;20420;-81
2021/06/15 09:30:30;;;;;;;4.43;3.80;;;26.50;50.80;;;;;;4922015;29;20424;-81
2021/06/15 09:33:19;;;;;;;4.80;4.00;;;26.50;50.80;;;;;;4920378;29;20420;-82
2021/06/15 09:36:03;;;;;;;4.50;3.90;;;26.50;50.80;;;;;;4922645;29;20424;-81
2021/06/15 09:38:34;;;;;;;4.00;3.63;;;26.50;50.80;;;;;;4922283;29;20428;-81
2021/06/15 09:41:10;;;;;;;;;;;;;;;;;;;;;
2021/06/15 09:43:53;;;;;;;;;;;;;;;;;;;;;
2021/06/15 09:46:28;;;;;;;4.87;3.67;;;26.60;50.90;;;;;;4936179;29;20475;-79
2021/06/15 09:49:01;;;;;;;4.00;3.60;;;26.60;50.90;;;;;;4922991;29;20420;-80
2021/06/15 09:52:18;;;;;;;3.50;3.20;;;26.60;50.90;;;;;;4923580;29;20412;-81
2021/06/15 09:55:00;;;;;;;4.33;3.30;;;26.60;51.00;;;;;;4923155;29;20452;-81
2021/06/15 09:57:56;;;;;;;3.57;3.27;;;26.60;51.00;;;;;;4937179;29;20423;-81
2021/06/15 10:00:35;;;;;;;5.03;3.70;;;26.60;51.10;;;;;;4938203;29;20427;-80
2021/06/15 10:08:54;;;;;;;5.40;4.30;;;26.60;51.10;;;;;;4968031;23;20511;-80
2021/06/15 10:11:36;;;;;;;4.20;2.97;;;26.60;51.10;;;;;;4967323;28;20434;-80
2021/06/15 10:14:14;;;;;;;3.83;3.43;;;26.60;51.10;;;;;;4968675;28;20439;-79
2021/06/15 10:16:54;;;;;;;5.60;3.70;;;26.60;51.00;;;;;;4972542;28;20428;-79
2021/06/15 10:19:30;;;;;;;3.60;3.30;;;26.60;51.00;;;;;;4968159;28;20418;-80
2021/06/15 10:22:21;;;;;;;;;;;;;;;;;;;;;
2021/06/15 10:24:58;;;;;;;3.80;3.50;;;26.60;50.90;;;;;;4973406;28;20476;-79
2021/06/15 10:27:39;;;;;;;4.50;4.10;;;26.70;50.90;;;;;;4975286;28;20429;-79
2021/06/15 10:30:19;;;;;;;4.30;3.17;;;26.70;50.90;;;;;;4966333;28;20478;-80
2021/06/15 10:32:53;;;;;;;4.30;3.20;;;26.70;50.90;;;;;;4984584;28;20421;-79
2021/06/15 10:35:45;;;;;;;4.43;3.67;;;26.60;50.90;;;;;;4974234;28;20450;-80
2021/06/15 10:38:26;;;;;;;3.40;3.10;;;26.70;50.90;;;;;;4968870;28;20434;-80
2021/06/15 10:48:09;;;;;;;4.47;3.77;;;26.70;50.70;;;;;;4973787;28;20433;-80
2021/06/15 10:51:49;;;;;;;6.03;4.03;;;26.60;50.60;;;;;;4975925;28;20453;-82
2021/06/15 10:54:43;;;;;;;3.67;3.37;;;26.60;50.50;;;;;;4975381;29;20434;-81
2021/06/15 10:57:31;;;;;;;6.10;2.83;;;26.60;50.60;;;;;;4953461;29;20427;-82
2021/06/15 11:00:26;;;;;;;3.70;3.40;;;26.60;50.50;;;;;;4960713;29;20458;-82
2021/06/15 11:03:40;;;;;;;3.77;3.47;;;26.60;50.40;;;;;;4969938;29;20494;-82
2021/06/15 11:06:09;;;;;;;4.00;3.10;;;26.60;50.40;;;;;;4935869;29;20467;-81
2021/06/15 11:08:39;;;;;;;3.93;3.07;;;26.60;50.50;;;;;;4934640;29;20441;-81
2021/06/15 11:11:18;;;;;;;3.80;3.47;;;26.60;50.40;;;;;;4935046;29;20486;-81
2021/06/15 11:13:48;;;;;;;4.00;3.70;;;26.60;50.40;;;;;;4935663;29;20414;-80
2021/06/15 11:20:06;;;;;;;4.43;3.40;;;26.60;50.40;;;;;;4956410;29;20422;-80
2021/06/15 11:26:49;;;;;;;4.03;3.63;;;26.60;50.60;;;;;;4957190;29;20441;-83
2021/06/15 11:32:56;;;;;;;9.17;5.30;;;26.50;50.60;;;;;;4907510;29;20413;-80
2021/06/15 11:35:45;;;;;;;6.30;5.27;;;26.50;50.70;;;;;;4889466;29;20413;-79
2021/06/15 11:38:17;;;;;;;6.07;4.80;;;26.50;50.70;;;;;;4884808;29;20433;-80
2021/06/15 11:40:45;;;;;;;7.50;5.20;;;26.50;50.80;;;;;;4880542;29;20511;-80
2021/06/15 11:43:12;;;;;;;7.93;5.10;;;26.40;50.70;;;;;;4916460;29;20491;-81
2021/06/15 11:45:55;;;;;;;11.53;5.70;;;26.50;50.80;;;;;;4951297;29;20986;-80
2021/06/15 11:49:07;;;;;;;9.80;5.93;;;26.50;50.80;;;;;;4952357;29;20410;-81
2021/06/15 11:51:46;;;;;;;9.03;5.37;;;26.50;50.80;;;;;;4958161;29;20414;-80
2021/06/15 11:54:25;;;;;;;9.43;5.60;;;26.40;50.80;;;;;;4973212;29;20449;-80
2021/06/15 11:56:59;;;;;;;8.27;6.13;;;26.40;50.80;;;;;;4977358;28;20426;-80
2021/06/15 12:06:29;;;;;;;6.47;5.40;;;26.40;50.90;;;;;;4963399;28;20858;-81
2021/06/15 12:09:12;;;;;;;10.73;5.60;;;26.40;50.90;;;;;;4972256;29;20426;-81
2021/06/15 12:12:11;;;;;;;6.13;4.80;;;26.40;50.90;;;;;;4974318;29;20410;-81
2021/06/15 12:21:25;;;;;;;;;;;;;;;;;;;;;
2021/06/15 12:27:01;;;;;;;;;;;;;;;;;;;;;
2021/06/15 12:30:06;;;;;;;8.50;4.60;;;26.40;50.80;;;;;;4857805;29;20427;-81
2021/06/15 12:32:48;;;;;;;6.50;4.17;;;26.40;50.70;;;;;;4844568;29;20419;-81
2021/06/15 12:35:20;;;;;;;8.57;4.53;;;26.40;50.70;;;;;;4863884;29;20476;-80
2021/06/15 12:37:53;;;;;;;8.43;4.50;;;26.50;50.70;;;;;;4844397;29;20438;-80
2021/06/15 12:40:25;;;;;;;7.70;4.40;;;26.50;50.70;;;;;;4864742;29;20479;-79
2021/06/15 12:43:02;;;;;;;6.67;4.97;;;26.50;50.70;;;;;;4863279;29;20461;-80
2021/06/15 12:45:51;;;;;;;7.37;4.37;;;26.50;50.70;;;;;;4863328;29;20467;-79
2021/06/15 12:48:57;;;;;;;6.77;3.93;;;26.50;50.60;;;;;;4850024;29;20432;-80
2021/06/15 12:54:58;;;;;;;4.40;3.57;;;26.50;50.60;;;;;;4881067;29;20453;-80
2021/06/15 12:57:24;;;;;;;5.13;3.87;;;26.50;50.70;;;;;;4885745;29;20438;-80
2021/06/15 13:00:22;;;;;;;6.83;3.93;;;26.50;50.70;;;;;;4904586;29;20439;-80
2021/06/15 13:03:33;;;;;;;6.67;3.90;;;26.40;50.60;;;;;;4944345;29;20465;-80
2021/06/15 13:09:58;;;;;;;6.90;4.33;;;26.40;50.60;;;;;;4939203;29;21020;-79
2021/06/15 13:16:13;;;;;;;8.23;4.20;;;26.40;50.60;;;;;;4883071;29;20478;-81
2021/06/15 13:19:26;;;;;;;9.27;4.10;;;26.40;50.60;;;;;;4866821;29;20844;-85
2021/06/15 13:22:36;;;;;;;6.60;4.17;;;26.50;50.70;;;;;;4829842;29;20538;-80
2021/06/15 13:28:58;;;;;;;4.70;3.30;;;26.40;50.60;;;;;;4805998;29;20429;-82
2021/06/15 13:31:30;;;;;;;4.13;3.37;;;26.40;50.60;;;;;;4791391;30;20458;-82
2021/06/15 13:34:09;;;;;;;3.60;3.17;;;26.40;50.60;;;;;;4791839;30;20473;-80
2021/06/15 13:36:39;;;;;;;5.67;3.80;;;26.40;50.50;;;;;;4791530;30;20483;-81
2021/06/15 13:39:16;;;;;;;6.80;3.30;;;26.40;50.50;;;;;;4791594;30;20485;-81
2021/06/15 13:41:55;;;;;;;4.77;3.23;;;26.40;50.50;;;;;;4792916;29;20493;-80
2021/06/15 13:44:32;;;;;;;9.07;3.13;;;26.40;50.50;;;;;;4827312;29;20435;-81
2021/06/15 13:47:20;;;;;;;4.50;3.53;;;26.50;50.60;;;;;;4841277;29;20436;-80
2021/06/15 13:49:49;;;;;;;4.87;2.87;;;26.50;50.50;;;;;;4826250;29;20424;-81
2021/06/15 13:52:19;;;;;;;3.53;3.10;;;26.50;50.60;;;;;;4863840;29;20408;-80
2021/06/15 13:54:46;;;;;;;5.20;3.43;;;26.40;50.50;;;;;;4918542;29;20420;-81
2021/06/15 13:57:15;;;;;;;4.37;3.30;;;26.50;50.60;;;;;;4967309;29;20427;-81
2021/06/15 13:59:51;;;;;;;3.37;3.07;;;26.40;50.50;;;;;;4972619;29;20454;-81
2021/06/15 14:02:18;;;;;;;3.23;2.93;;;26.40;50.60;;;;;;4973015;29;20416;-80
2021/06/15 14:05:10;;;;;;;3.63;3.10;;;26.40;50.60;;;;;;4973986;29;20461;-81
2021/06/15 14:07:44;;;;;;;5.53;3.43;;;26.40;50.50;;;;;;4936717;29;20500;-80
2021/06/15 14:10:25;;;;;;;3.73;3.03;;;26.40;50.60;;;;;;4923032;29;20431;-79
2021/06/15 14:13:17;;;;;;;4.97;3.37;;;26.50;50.60;;;;;;4938688;29;20420;-79
2021/06/15 14:15:54;;;;;;;3.73;2.80;;;26.50;50.60;;;;;;4924241;29;20404;-79
2021/06/15 14:18:34;;;;;;;4.43;3.00;;;26.50;50.70;;;;;;4923423;29;20443;-79
2021/06/15 14:21:14;;;;;;;4.33;3.00;;;26.50;50.70;;;;;;4907644;29;20411;-80
2021/06/15 14:23:45;;;;;;;3.10;2.20;;;26.50;50.70;;;;;;4924123;29;20475;-80
2021/06/15 14:26:29;;;;;;;3.40;3.10;;;26.50;51.30;;;;;;4922660;29;20494;-79
2021/06/15 14:29:17;;;;;;;3.00;2.70;;;26.50;50.80;;;;;;4919802;29;20410;-81
2021/06/15 14:31:47;;;;;;;4.93;3.07;;;26.50;50.80;;;;;;4919912;29;20946;-80
2021/06/15 14:34:22;;;;;;;4.30;3.57;;;26.50;50.80;;;;;;4919525;29;20484;-80
2021/06/15 14:36:55;;;;;;;3.10;2.80;;;26.60;50.90;;;;;;4918057;29;20431;-82
2021/06/15 14:39:27;;;;;;;4.00;3.13;;;26.50;50.90;;;;;;4988101;28;20417;-80
2021/06/15 14:42:05;;;;;;;3.07;2.70;;;26.60;50.90;;;;;;4975666;28;20414;-80
2021/06/15 14:44:36;;;;;;;3.87;2.77;;;26.60;50.90;;;;;;4975735;28;20425;-80
2021/06/15 14:47:14;;;;;;;3.53;2.70;;;26.60;50.90;;;;;;4975228;28;20490;-80
2021/06/15 14:49:48;;;;;;;3.60;2.80;;;26.60;51.00;;;;;;4973832;29;20418;-80
2021/06/15 14:56:15;;;;;;;;;;;;;;;;;;;;;
2021/06/15 14:58:52;;;;;;;2.93;2.50;;;26.60;51.00;;;;;;4938607;29;20436;-79
2021/06/15 15:07:46;;;;;;;2.80;2.57;;;26.70;51.10;;;;;;4912015;29;20423;-80
2021/06/15 15:10:17;;;;;;;3.67;2.60;;;26.60;51.10;;;;;;4921923;29;20408;-79
2021/06/15 15:12:50;;;;;;;6.33;2.73;;;26.70;51.20;;;;;;4922304;29;20488;-79
2021/06/15 15:15:26;;;;;;;3.17;2.87;;;26.60;51.10;;;;;;4923208;29;20448;-79
2021/06/15 15:21:19;;;;;;;2.97;2.63;;;26.70;51.10;;;;;;4939158;29;20403;-79
2021/06/15 15:23:50;;;;;;;3.67;2.30;;;26.60;51.20;;;;;;4938773;29;20408;-80
2021/06/15 15:26:17;;;;;;;3.97;2.30;;;26.70;51.20;;;;;;4963866;29;20505;-79
2021/06/15 15:29:08;;;;;;;2.63;2.30;;;26.70;51.20;;;;;;4976334;28;20449;-80
2021/06/15 15:31:35;;;;;;;4.80;3.07;;;26.70;51.20;;;;;;4973973;29;20442;-78
2021/06/15 15:34:08;;;;;;;2.77;2.30;;;26.70;51.20;;;;;;4973682;29;20430;-79